sensor_id;sensor_type;location;lat;lon;timestamp;pressure;altitude;pressure_sealevel;temperature;humidity
45523;BME280;31254;51.680;5.394;2023-03-04T00:02:18;102708.78;;;6.17;68.56
45523;BME280;31254;51.680;5.394;2023-03-04T00:04:45;102712.44;;;6.16;68.96
45523;BME280;31254;51.680;5.394;2023-03-04T00:07:15;102692.25;;;6.04;68.72
45523;BME280;31254;51.680;5.394;2023-03-04T00:09:45;102687.03;;;6.00;68.92
45523;BME280;31254;51.680;5.394;2023-03-04T00:12:14;102678.13;;;5.98;69.03
45523;BME280;31254;51.680;5.394;2023-03-04T00:14:42;102707.94;;;6.15;69.00
45523;BME280;31254;51.680;5.394;2023-03-04T00:17:09;102703.50;;;6.14;69.46
45523;BME280;31254;51.680;5.394;2023-03-04T00:19:36;102667.63;;;5.90;69.04
45523;BME280;31254;51.680;5.394;2023-03-04T00:22:03;102664.91;;;5.90;69.19
45523;BME280;31254;51.680;5.394;2023-03-04T00:24:30;102703.56;;;6.13;69.31
45523;BME280;31254;51.680;5.394;2023-03-04T00:26:57;102571.13;;;5.32;69.46
45523;BME280;31254;51.680;5.394;2023-03-04T00:29:24;102686.97;;;6.01;69.50
45523;BME280;31254;51.680;5.394;2023-03-04T00:31:51;102691.34;;;6.04;69.46
45523;BME280;31254;51.680;5.394;2023-03-04T00:34:20;102704.59;;;6.10;69.38
45523;BME280;31254;51.680;5.394;2023-03-04T00:36:47;102679.94;;;5.97;69.19
45523;BME280;31254;51.680;5.394;2023-03-04T00:39:14;102706.44;;;6.10;69.46
45523;BME280;31254;51.680;5.394;2023-03-04T00:41:41;102695.66;;;6.08;69.29
45523;BME280;31254;51.680;5.394;2023-03-04T00:44:08;102702.94;;;6.08;69.27
45523;BME280;31254;51.680;5.394;2023-03-04T00:46:34;102691.34;;;6.04;69.54
45523;BME280;31254;51.680;5.394;2023-03-04T00:49:03;102692.09;;;6.08;69.42
45523;BME280;31254;51.680;5.394;2023-03-04T00:51:30;102686.09;;;6.01;69.28
45523;BME280;31254;51.680;5.394;2023-03-04T00:53:59;102700.28;;;6.06;69.22
45523;BME280;31254;51.680;5.394;2023-03-04T00:56:26;102482.28;;;4.66;69.13
45523;BME280;31254;51.680;5.394;2023-03-04T00:58:53;102686.44;;;5.93;69.47
45523;BME280;31254;51.680;5.394;2023-03-04T01:01:20;102709.38;;;6.05;69.69
45523;BME280;31254;51.680;5.394;2023-03-04T01:03:46;102576.84;;;5.26;69.27
45523;BME280;31254;51.680;5.394;2023-03-04T01:06:13;102685.59;;;5.91;69.82
45523;BME280;31254;51.680;5.394;2023-03-04T01:08:43;102701.53;;;5.99;69.74
45523;BME280;31254;51.680;5.394;2023-03-04T01:11:10;102683.16;;;5.86;69.77
45523;BME280;31254;51.680;5.394;2023-03-04T01:13:37;102704.09;;;6.02;69.62
45523;BME280;31254;51.680;5.394;2023-03-04T01:16:05;102671.63;;;5.81;69.88
45523;BME280;31254;51.680;5.394;2023-03-04T01:18:32;102681.09;;;5.92;70.02
45523;BME280;31254;51.680;5.394;2023-03-04T01:20:59;102706.81;;;6.02;69.82
45523;BME280;31254;51.680;5.394;2023-03-04T01:23:26;102678.75;;;5.84;70.07
45523;BME280;31254;51.680;5.394;2023-03-04T01:25:53;102706.00;;;6.00;69.86
45523;BME280;31254;51.680;5.394;2023-03-04T01:28:19;102703.31;;;6.00;69.49
45523;BME280;31254;51.680;5.394;2023-03-04T01:30:46;102693.84;;;5.90;70.11
45523;BME280;31254;51.680;5.394;2023-03-04T01:33:17;102655.78;;;5.74;70.12
45523;BME280;31254;51.680;5.394;2023-03-04T01:35:44;102686.66;;;5.89;70.03
45523;BME280;31254;51.680;5.394;2023-03-04T01:38:11;102690.81;;;5.96;70.36
45523;BME280;31254;51.680;5.394;2023-03-04T01:40:40;102498.81;;;4.79;69.93
45523;BME280;31254;51.680;5.394;2023-03-04T01:43:06;102678.31;;;5.93;70.15
45523;BME280;31254;51.680;5.394;2023-03-04T01:45:42;102670.41;;;5.89;70.55
45523;BME280;31254;51.680;5.394;2023-03-04T01:48:10;102668.56;;;5.89;70.39
45523;BME280;31254;51.680;5.394;2023-03-04T01:50:42;102679.97;;;5.96;70.37
45523;BME280;31254;51.680;5.394;2023-03-04T01:53:20;102666.56;;;5.93;70.30
45523;BME280;31254;51.680;5.394;2023-03-04T01:55:47;102639.25;;;5.80;70.24
45523;BME280;31254;51.680;5.394;2023-03-04T01:58:16;102647.94;;;5.86;70.25
45523;BME280;31254;51.680;5.394;2023-03-04T02:00:43;102669.09;;;5.97;70.29
45523;BME280;31254;51.680;5.394;2023-03-04T02:03:15;102621.53;;;5.73;70.42
45523;BME280;31254;51.680;5.394;2023-03-04T02:05:48;102651.22;;;5.93;70.58
45523;BME280;31254;51.680;5.394;2023-03-04T02:08:17;102648.72;;;5.89;70.43
45523;BME280;31254;51.680;5.394;2023-03-04T02:10:44;102652.09;;;5.94;70.62
45523;BME280;31254;51.680;5.394;2023-03-04T02:13:13;102654.72;;;5.95;70.71
45523;BME280;31254;51.680;5.394;2023-03-04T02:15:41;102635.47;;;5.82;70.72
45523;BME280;31254;51.680;5.394;2023-03-04T02:18:19;102646.66;;;5.94;70.65
45523;BME280;31254;51.680;5.394;2023-03-04T02:23:36;102653.09;;;5.91;70.86
45523;BME280;31254;51.680;5.394;2023-03-04T02:28:38;102647.78;;;5.90;70.87
45523;BME280;31254;51.680;5.394;2023-03-04T02:31:05;102655.03;;;5.89;70.68
45523;BME280;31254;51.680;5.394;2023-03-04T02:33:32;102646.88;;;5.89;70.58
45523;BME280;31254;51.680;5.394;2023-03-04T02:35:59;102612.59;;;5.71;70.58
45523;BME280;31254;51.680;5.394;2023-03-04T02:38:25;102643.31;;;5.89;70.92
45523;BME280;31254;51.680;5.394;2023-03-04T02:40:53;102637.03;;;5.88;70.74
45523;BME280;31254;51.680;5.394;2023-03-04T02:43:21;102608.78;;;5.75;70.83
45523;BME280;31254;51.680;5.394;2023-03-04T02:45:50;102638.03;;;5.85;70.93
45523;BME280;31254;51.680;5.394;2023-03-04T02:48:19;102503.41;;;5.15;70.95
45523;BME280;31254;51.680;5.394;2023-03-04T02:50:51;102620.03;;;5.84;71.39
45523;BME280;31254;51.680;5.394;2023-03-04T02:53:19;102598.28;;;5.68;71.18
45523;BME280;31254;51.680;5.394;2023-03-04T02:55:48;102599.78;;;5.74;71.08
45523;BME280;31254;51.680;5.394;2023-03-04T02:58:15;102614.75;;;5.81;71.07
45523;BME280;31254;51.680;5.394;2023-03-04T03:00:42;102631.53;;;5.90;71.37
45523;BME280;31254;51.680;5.394;2023-03-04T03:03:11;102540.03;;;5.41;71.19
45523;BME280;31254;51.680;5.394;2023-03-04T03:05:38;102565.88;;;5.48;71.02
45523;BME280;31254;51.680;5.394;2023-03-04T03:08:08;102625.38;;;5.86;71.11
45523;BME280;31254;51.680;5.394;2023-03-04T03:10:35;102619.88;;;5.88;71.49
45523;BME280;31254;51.680;5.394;2023-03-04T03:13:01;102620.78;;;5.88;71.27
45523;BME280;31254;51.680;5.394;2023-03-04T03:15:28;102620.03;;;5.84;71.41
45523;BME280;31254;51.680;5.394;2023-03-04T03:17:56;102540.78;;;5.44;71.41
45523;BME280;31254;51.680;5.394;2023-03-04T03:20:25;102623.56;;;5.86;71.39
45523;BME280;31254;51.680;5.394;2023-03-04T03:22:52;102613.66;;;5.85;71.34
45523;BME280;31254;51.680;5.394;2023-03-04T03:25:18;102618.28;;;5.83;71.41
45523;BME280;31254;51.680;5.394;2023-03-04T03:27:45;102612.81;;;5.85;71.30
45523;BME280;31254;51.680;5.394;2023-03-04T03:30:13;102610.16;;;5.83;71.79
45523;BME280;31254;51.680;5.394;2023-03-04T03:32:42;102580.25;;;5.67;71.23
45523;BME280;31254;51.680;5.394;2023-03-04T03:35:11;102613.81;;;5.82;71.50
45523;BME280;31254;51.680;5.394;2023-03-04T03:37:38;102602.34;;;5.77;71.41
45523;BME280;31254;51.680;5.394;2023-03-04T03:40:05;102603.22;;;5.78;71.39
45523;BME280;31254;51.680;5.394;2023-03-04T03:42:34;102609.34;;;5.81;71.39
45523;BME280;31254;51.680;5.394;2023-03-04T03:45:01;102605.84;;;5.79;71.20
45523;BME280;31254;51.680;5.394;2023-03-04T03:47:28;102594.44;;;5.73;70.99
45523;BME280;31254;51.680;5.394;2023-03-04T03:49:54;102605.69;;;5.82;71.09
45523;BME280;31254;51.680;5.394;2023-03-04T03:52:21;102567.00;;;5.61;71.31
45523;BME280;31254;51.680;5.394;2023-03-04T03:54:48;102501.88;;;5.28;71.11
45523;BME280;31254;51.680;5.394;2023-03-04T03:57:14;102574.84;;;5.67;71.31
45523;BME280;31254;51.680;5.394;2023-03-04T03:59:41;102599.34;;;5.83;70.92
45523;BME280;31254;51.680;5.394;2023-03-04T04:02:07;102601.13;;;5.83;71.14
45523;BME280;31254;51.680;5.394;2023-03-04T04:04:34;102599.34;;;5.83;71.16
45523;BME280;31254;51.680;5.394;2023-03-04T04:07:01;102522.28;;;5.35;71.12
45523;BME280;31254;51.680;5.394;2023-03-04T04:09:27;102586.38;;;5.71;70.85
45523;BME280;31254;51.680;5.394;2023-03-04T04:12:00;102586.25;;;5.74;71.23
45523;BME280;31254;51.680;5.394;2023-03-04T04:14:26;102605.53;;;5.85;71.08
45523;BME280;31254;51.680;5.394;2023-03-04T04:16:53;102590.72;;;5.75;71.43
45523;BME280;31254;51.680;5.394;2023-03-04T04:19:20;102608.31;;;5.84;71.42
45523;BME280;31254;51.680;5.394;2023-03-04T04:21:47;102608.16;;;5.87;71.43
45523;BME280;31254;51.680;5.394;2023-03-04T04:24:14;102610.00;;;5.86;71.39
45523;BME280;31254;51.680;5.394;2023-03-04T04:26:41;102575.84;;;5.65;71.46
45523;BME280;31254;51.680;5.394;2023-03-04T04:29:09;102603.69;;;5.86;71.37
45523;BME280;31254;51.680;5.394;2023-03-04T04:31:40;102593.19;;;5.80;71.43
45523;BME280;31254;51.680;5.394;2023-03-04T04:34:07;102545.16;;;5.47;71.50
45523;BME280;31254;51.680;5.394;2023-03-04T04:36:36;102593.19;;;5.80;71.64
45523;BME280;31254;51.680;5.394;2023-03-04T04:39:05;102596.06;;;5.77;71.82
45523;BME280;31254;51.680;5.394;2023-03-04T04:41:39;102612.72;;;5.86;71.71
45523;BME280;31254;51.680;5.394;2023-03-04T04:44:07;102613.59;;;5.87;71.47
45523;BME280;31254;51.680;5.394;2023-03-04T04:46:34;102616.38;;;5.85;71.55
45523;BME280;31254;51.680;5.394;2023-03-04T04:49:02;102610.97;;;5.85;71.52
45523;BME280;31254;51.680;5.394;2023-03-04T04:51:29;102608.41;;;5.82;71.45
45523;BME280;31254;51.680;5.394;2023-03-04T04:53:59;102618.28;;;5.83;71.56
45523;BME280;31254;51.680;5.394;2023-03-04T04:56:27;102610.16;;;5.83;71.40
45523;BME280;31254;51.680;5.394;2023-03-04T04:58:59;102612.03;;;5.81;71.59
45523;BME280;31254;51.680;5.394;2023-03-04T05:01:26;102589.31;;;5.66;71.28
45523;BME280;31254;51.680;5.394;2023-03-04T05:03:53;102551.25;;;5.33;71.52
45523;BME280;31254;51.680;5.394;2023-03-04T05:06:24;102607.91;;;5.74;71.57
45523;BME280;31254;51.680;5.394;2023-03-04T05:08:53;102617.38;;;5.83;71.38
45523;BME280;31254;51.680;5.394;2023-03-04T05:11:20;102618.44;;;5.80;71.54
45523;BME280;31254;51.680;5.394;2023-03-04T05:13:47;102617.38;;;5.83;71.75
45523;BME280;31254;51.680;5.394;2023-03-04T05:16:15;102618.28;;;5.83;71.48
45523;BME280;31254;51.680;5.394;2023-03-04T05:18:42;102579.69;;;5.61;71.18
45523;BME280;31254;51.680;5.394;2023-03-04T05:21:08;102617.47;;;5.81;71.34
45523;BME280;31254;51.680;5.394;2023-03-04T05:23:38;102616.59;;;5.81;71.30
45523;BME280;31254;51.680;5.394;2023-03-04T05:26:07;102623.84;;;5.80;71.39
45523;BME280;31254;51.680;5.394;2023-03-04T05:28:34;102611.25;;;5.79;71.62
45523;BME280;31254;51.680;5.394;2023-03-04T05:31:03;102583.19;;;5.63;71.59
45523;BME280;31254;51.680;5.394;2023-03-04T05:33:30;102614.19;;;5.75;71.68
45523;BME280;31254;51.680;5.394;2023-03-04T05:35:59;102613.31;;;5.74;72.02
45523;BME280;31254;51.680;5.394;2023-03-04T05:38:30;102613.69;;;5.66;72.28
45523;BME280;31254;51.680;5.394;2023-03-04T05:41:02;102607.34;;;5.67;71.87
45523;BME280;31254;51.680;5.394;2023-03-04T05:43:30;102617.13;;;5.70;71.89
45523;BME280;31254;51.680;5.394;2023-03-04T05:46:06;102608.41;;;5.63;72.14
45523;BME280;31254;51.680;5.394;2023-03-04T05:48:33;102616.31;;;5.68;72.47
45523;BME280;31254;51.680;5.394;2023-03-04T05:51:00;102620.78;;;5.69;72.40
45523;BME280;31254;51.680;5.394;2023-03-04T05:53:27;102627.16;;;5.68;72.32
45523;BME280;31254;51.680;5.394;2023-03-04T05:55:54;102630.75;;;5.68;72.25
45523;BME280;31254;51.680;5.394;2023-03-04T05:58:21;102632.50;;;5.70;72.53
45523;BME280;31254;51.680;5.394;2023-03-04T06:00:48;102626.50;;;5.63;72.84
45523;BME280;31254;51.680;5.394;2023-03-04T06:03:19;102610.41;;;5.60;72.70
45523;BME280;31254;51.680;5.394;2023-03-04T06:05:46;102609.53;;;5.59;73.07
45523;BME280;31254;51.680;5.394;2023-03-04T06:08:15;102624.38;;;5.70;72.91
45523;BME280;31254;51.680;5.394;2023-03-04T06:10:41;102631.63;;;5.69;73.17
45523;BME280;31254;51.680;5.394;2023-03-04T06:13:09;102616.69;;;5.60;72.83
45523;BME280;31254;51.680;5.394;2023-03-04T06:15:37;102631.69;;;5.67;73.36
45523;BME280;31254;51.680;5.394;2023-03-04T06:18:06;102633.53;;;5.67;73.45
45523;BME280;31254;51.680;5.394;2023-03-04T06:20:32;102634.47;;;5.66;72.85
45523;BME280;31254;51.680;5.394;2023-03-04T06:22:59;102640.84;;;5.65;73.01
45523;BME280;31254;51.680;5.394;2023-03-04T06:25:26;102632.06;;;5.60;73.51
45523;BME280;31254;51.680;5.394;2023-03-04T06:27:55;102629.56;;;5.55;73.51
45523;BME280;31254;51.680;5.394;2023-03-04T06:30:22;102484.94;;;4.67;74.10
45523;BME280;31254;51.680;5.394;2023-03-04T06:32:52;102618.31;;;5.45;73.71
45523;BME280;31254;51.680;5.394;2023-03-04T06:35:18;102635.06;;;5.54;74.21
45523;BME280;31254;51.680;5.394;2023-03-04T06:37:46;102636.91;;;5.53;73.79
45523;BME280;31254;51.680;5.394;2023-03-04T06:40:15;102643.19;;;5.54;73.97
45523;BME280;31254;51.680;5.394;2023-03-04T06:42:44;102638.66;;;5.54;74.59
45523;BME280;31254;51.680;5.394;2023-03-04T06:45:13;102632.69;;;5.47;74.71
45523;BME280;31254;51.680;5.394;2023-03-04T06:47:39;102626.50;;;5.44;74.73
45523;BME280;31254;51.680;5.394;2023-03-04T06:50:10;102635.00;;;5.55;75.13
45523;BME280;31254;51.680;5.394;2023-03-04T06:52:38;102646.53;;;5.59;75.09
45523;BME280;31254;51.680;5.394;2023-03-04T06:55:05;102645.38;;;5.64;75.18
45523;BME280;31254;51.680;5.394;2023-03-04T06:57:33;102607.47;;;5.45;75.37
45523;BME280;31254;51.680;5.394;2023-03-04T06:59:59;102636.31;;;5.65;75.00
45523;BME280;31254;51.680;5.394;2023-03-04T07:02:28;102643.69;;;5.62;74.92
45523;BME280;31254;51.680;5.394;2023-03-04T07:04:55;102645.25;;;5.67;75.17
45523;BME280;31254;51.680;5.394;2023-03-04T07:07:24;102635.28;;;5.68;75.00
45523;BME280;31254;51.680;5.394;2023-03-04T07:10:06;102630.97;;;5.64;74.94
45523;BME280;31254;51.680;5.394;2023-03-04T07:12:34;102647.00;;;5.68;74.73
45523;BME280;31254;51.680;5.394;2023-03-04T07:15:01;102633.75;;;5.62;74.86
45523;BME280;31254;51.680;5.394;2023-03-04T07:17:28;102640.63;;;5.70;74.86
45523;BME280;31254;51.680;5.394;2023-03-04T07:19:55;102542.41;;;5.10;75.44
45523;BME280;31254;51.680;5.394;2023-03-04T07:22:21;102647.50;;;5.77;75.42
45523;BME280;31254;51.680;5.394;2023-03-04T07:24:53;102646.63;;;5.76;75.34
45523;BME280;31254;51.680;5.394;2023-03-04T07:27:20;102625.41;;;5.67;75.56
45523;BME280;31254;51.680;5.394;2023-03-04T07:29:47;102474.91;;;4.69;75.51
45523;BME280;31254;51.680;5.394;2023-03-04T07:32:14;102643.75;;;5.79;75.19
45523;BME280;31254;51.680;5.394;2023-03-04T07:34:43;102641.19;;;5.76;75.39
45523;BME280;31254;51.680;5.394;2023-03-04T07:37:12;102644.47;;;5.83;75.31
45523;BME280;31254;51.680;5.394;2023-03-04T07:39:41;102661.97;;;5.95;75.32
45523;BME280;31254;51.680;5.394;2023-03-04T07:42:08;102657.50;;;5.94;75.45
45523;BME280;31254;51.680;5.394;2023-03-04T07:44:34;102665.28;;;6.01;75.39
45523;BME280;31254;51.680;5.394;2023-03-04T07:47:01;102664.25;;;6.04;75.32
45523;BME280;31254;51.680;5.394;2023-03-04T07:49:27;102678.53;;;6.08;75.37
45523;BME280;31254;51.680;5.394;2023-03-04T07:51:54;102675.63;;;6.12;75.39
45523;BME280;31254;51.680;5.394;2023-03-04T07:54:21;102672.56;;;6.18;75.16
45523;BME280;31254;51.680;5.394;2023-03-04T07:56:47;102683.25;;;6.21;75.21
45523;BME280;31254;51.680;5.394;2023-03-04T07:59:14;102678.47;;;6.27;74.85
45523;BME280;31254;51.680;5.394;2023-03-04T08:01:41;102659.84;;;6.20;74.86
45523;BME280;31254;51.680;5.394;2023-03-04T08:04:11;102668.94;;;6.37;74.99
45523;BME280;31254;51.680;5.394;2023-03-04T08:06:43;102664.78;;;6.47;74.72
45523;BME280;31254;51.680;5.394;2023-03-04T08:09:12;102677.41;;;6.66;74.32
45523;BME280;31254;51.680;5.394;2023-03-04T08:11:40;102678.38;;;6.82;73.81
45523;BME280;31254;51.680;5.394;2023-03-04T08:14:07;102676.28;;;6.87;73.84
45523;BME280;31254;51.680;5.394;2023-03-04T08:16:37;102663.09;;;6.97;73.64
45523;BME280;31254;51.680;5.394;2023-03-04T08:19:04;102658.19;;;7.21;72.53
45523;BME280;31254;51.680;5.394;2023-03-04T08:21:32;102687.94;;;7.56;72.51
45523;BME280;31254;51.680;5.394;2023-03-04T08:24:02;102610.38;;;7.35;71.43
45523;BME280;31254;51.680;5.394;2023-03-04T08:26:37;102686.91;;;7.91;71.35
45523;BME280;31254;51.680;5.394;2023-03-04T08:29:09;102676.31;;;7.86;71.67
45523;BME280;31254;51.680;5.394;2023-03-04T08:31:36;102688.38;;;7.80;71.60
45523;BME280;31254;51.680;5.394;2023-03-04T08:34:05;102685.75;;;7.63;72.42
45523;BME280;31254;51.680;5.394;2023-03-04T08:36:35;102641.84;;;7.55;71.61
45523;BME280;31254;51.680;5.394;2023-03-04T08:39:04;102684.28;;;8.05;71.18
45523;BME280;31254;51.680;5.394;2023-03-04T08:41:30;102691.44;;;8.22;70.60
45523;BME280;31254;51.680;5.394;2023-03-04T08:44:01;102694.06;;;8.23;70.79
45523;BME280;31254;51.680;5.394;2023-03-04T08:46:28;102659.44;;;8.11;70.72
45523;BME280;31254;51.680;5.394;2023-03-04T08:48:57;102649.81;;;8.05;70.72
45523;BME280;31254;51.680;5.394;2023-03-04T08:51:23;102679.06;;;8.48;70.04
45523;BME280;31254;51.680;5.394;2023-03-04T08:53:52;102685.72;;;8.73;69.32
45523;BME280;31254;51.680;5.394;2023-03-04T08:56:19;102693.97;;;8.71;69.29
45523;BME280;31254;51.680;5.394;2023-03-04T08:58:48;102683.41;;;8.67;69.69
45523;BME280;31254;51.680;5.394;2023-03-04T09:01:17;102689.44;;;8.72;69.42
45523;BME280;31254;51.680;5.394;2023-03-04T09:03:48;102656.47;;;8.62;69.34
45523;BME280;31254;51.680;5.394;2023-03-04T09:06:16;102672.94;;;8.75;69.86
45523;BME280;31254;51.680;5.394;2023-03-04T09:08:44;102670.88;;;8.78;69.68
45523;BME280;31254;51.680;5.394;2023-03-04T09:11:13;102649.06;;;8.94;69.17
45523;BME280;31254;51.680;5.394;2023-03-04T09:13:39;102660.81;;;8.95;68.79
45523;BME280;31254;51.680;5.394;2023-03-04T09:16:13;102668.00;;;8.96;69.34
45523;BME280;31254;51.680;5.394;2023-03-04T09:18:40;102654.19;;;9.13;68.77
45523;BME280;31254;51.680;5.394;2023-03-04T09:21:08;102637.84;;;9.42;67.73
45523;BME280;31254;51.680;5.394;2023-03-04T09:23:35;102646.53;;;9.35;68.06
45523;BME280;31254;51.680;5.394;2023-03-04T09:26:30;102662.56;;;9.39;68.29
45523;BME280;31254;51.680;5.394;2023-03-04T09:28:59;102658.97;;;9.53;67.03
45523;BME280;31254;51.680;5.394;2023-03-04T09:31:27;102657.31;;;9.50;67.49
45523;BME280;31254;51.680;5.394;2023-03-04T09:33:56;102656.16;;;9.55;67.42
45523;BME280;31254;51.680;5.394;2023-03-04T09:36:25;102655.69;;;9.33;68.15
45523;BME280;31254;51.680;5.394;2023-03-04T09:38:52;102656.16;;;9.11;68.43
45523;BME280;31254;51.680;5.394;2023-03-04T09:41:33;102642.81;;;9.07;68.85
45523;BME280;31254;51.680;5.394;2023-03-04T09:44:11;102651.50;;;8.99;69.20
45523;BME280;31254;51.680;5.394;2023-03-04T09:46:43;102656.09;;;8.83;69.63
45523;BME280;31254;51.680;5.394;2023-03-04T09:49:12;102630.50;;;8.56;69.75
45523;BME280;31254;51.680;5.394;2023-03-04T09:51:56;102642.34;;;9.00;68.91
45523;BME280;31254;51.680;5.394;2023-03-04T09:54:53;102647.59;;;9.32;68.42
45523;BME280;31254;51.680;5.394;2023-03-04T09:57:51;102647.56;;;9.61;67.32
45523;BME280;31254;51.680;5.394;2023-03-04T10:00:32;102641.72;;;9.94;66.65
45523;BME280;31254;51.680;5.394;2023-03-04T10:16:52;102645.94;;;9.15;68.98
45523;BME280;31254;51.680;5.394;2023-03-04T10:21:58;102646.69;;;8.88;69.53
45523;BME280;31254;51.680;5.394;2023-03-04T10:24:28;102578.34;;;8.34;69.64
45523;BME280;31254;51.680;5.394;2023-03-04T10:27:01;102651.63;;;8.67;70.12
45523;BME280;31254;51.680;5.394;2023-03-04T10:29:31;102657.53;;;8.59;70.95
45523;BME280;31254;51.680;5.394;2023-03-04T10:31:58;102653.88;;;8.45;71.08
45523;BME280;31254;51.680;5.394;2023-03-04T10:34:25;102652.94;;;8.30;71.33
45523;BME280;31254;51.680;5.394;2023-03-04T10:37:03;102655.06;;;8.24;71.70
45523;BME280;31254;51.680;5.394;2023-03-04T10:39:44;102648.47;;;8.13;72.27
45523;BME280;31254;51.680;5.394;2023-03-04T10:44:59;102646.41;;;8.02;72.83
45523;BME280;31254;51.680;5.394;2023-03-04T10:47:28;102652.53;;;8.05;73.11
45523;BME280;31254;51.680;5.394;2023-03-04T10:50:00;102639.56;;;7.95;73.24
45523;BME280;31254;51.680;5.394;2023-03-04T10:52:54;102642.38;;;7.93;73.85
45523;BME280;31254;51.680;5.394;2023-03-04T10:55:25;102644.22;;;7.93;73.96
45523;BME280;31254;51.680;5.394;2023-03-04T10:57:54;102641.47;;;8.09;73.70
45523;BME280;31254;51.680;5.394;2023-03-04T11:00:24;102644.03;;;8.42;72.82
45523;BME280;31254;51.680;5.394;2023-03-04T11:03:11;102610.00;;;8.51;72.83
45523;BME280;31254;51.680;5.394;2023-03-04T11:05:38;102621.53;;;8.85;72.43
45523;BME280;31254;51.680;5.394;2023-03-04T11:08:16;102603.94;;;9.05;71.96
45523;BME280;31254;51.680;5.394;2023-03-04T11:10:44;102598.28;;;9.22;71.03
45523;BME280;31254;51.680;5.394;2023-03-04T11:18:42;102602.47;;;9.69;70.97
45523;BME280;31254;51.680;5.394;2023-03-04T11:21:22;102592.94;;;9.35;71.56
45523;BME280;31254;51.680;5.394;2023-03-04T11:23:56;102617.34;;;9.22;72.32
45523;BME280;31254;51.680;5.394;2023-03-04T11:26:36;102624.25;;;8.99;72.85
45523;BME280;31254;51.680;5.394;2023-03-04T11:34:21;102606.31;;;8.66;74.40
45523;BME280;31254;51.680;5.394;2023-03-04T11:42:06;102563.19;;;9.18;72.64
45523;BME280;31254;51.680;5.394;2023-03-04T11:44:38;102577.44;;;9.50;72.00
45523;BME280;31254;51.680;5.394;2023-03-04T11:47:21;102573.31;;;9.57;72.36
45523;BME280;31254;51.680;5.394;2023-03-04T11:55:33;102569.63;;;9.58;72.12
45523;BME280;31254;51.680;5.394;2023-03-04T12:00:54;102567.34;;;9.65;72.17
45523;BME280;31254;51.680;5.394;2023-03-04T12:04:39;102562.91;;;9.64;71.92
45523;BME280;31254;51.680;5.394;2023-03-04T12:06:49;102562.63;;;9.54;72.41
45523;BME280;31254;51.680;5.394;2023-03-04T12:15:21;102542.06;;;9.63;72.23
45523;BME280;31254;51.680;5.394;2023-03-04T12:31:40;102528.81;;;9.29;73.53
45523;BME280;31254;51.680;5.394;2023-03-04T12:40:07;102513.97;;;9.62;72.96
45523;BME280;31254;51.680;5.394;2023-03-04T12:48:37;102502.97;;;9.64;72.67
45523;BME280;31254;51.680;5.394;2023-03-04T12:54:18;102487.66;;;9.34;73.44
45523;BME280;31254;51.680;5.394;2023-03-04T12:56:53;102381.19;;;8.70;73.63
45523;BME280;31254;51.680;5.394;2023-03-04T12:59:23;102508.78;;;9.30;74.34
45523;BME280;31254;51.680;5.394;2023-03-04T13:02:05;102509.28;;;9.23;74.36
45523;BME280;31254;51.680;5.394;2023-03-04T13:07:29;102507.50;;;8.80;75.77
45523;BME280;31254;51.680;5.394;2023-03-04T13:10:15;102496.44;;;8.69;76.66
45523;BME280;31254;51.680;5.394;2023-03-04T13:13:03;102497.09;;;8.72;76.45
45523;BME280;31254;51.680;5.394;2023-03-04T13:15:31;102514.00;;;8.63;76.46
45523;BME280;31254;51.680;5.394;2023-03-04T13:18:29;102507.69;;;8.48;76.78
45523;BME280;31254;51.680;5.394;2023-03-04T13:21:04;102486.78;;;8.34;77.13
45523;BME280;31254;51.680;5.394;2023-03-04T13:23:31;102501.66;;;8.43;76.71
45523;BME280;31254;51.680;5.394;2023-03-04T13:28:28;102493.22;;;8.48;76.94
45523;BME280;31254;51.680;5.394;2023-03-04T13:35:59;102484.00;;;8.65;77.06
45523;BME280;31254;51.680;5.394;2023-03-04T13:51:36;102456.66;;;8.95;76.73
45523;BME280;31254;51.680;5.394;2023-03-04T13:54:13;102456.66;;;8.95;76.85
45523;BME280;31254;51.680;5.394;2023-03-04T13:56:43;102459.09;;;8.85;77.12
45523;BME280;31254;51.680;5.394;2023-03-04T13:59:54;102466.50;;;8.83;77.42
45523;BME280;31254;51.680;5.394;2023-03-04T14:02:17;102468.56;;;8.65;77.73
45523;BME280;31254;51.680;5.394;2023-03-04T14:04:55;102463.69;;;8.56;77.99
45523;BME280;31254;51.680;5.394;2023-03-04T14:10:21;102474.47;;;8.43;78.32
45523;BME280;31254;51.680;5.394;2023-03-04T14:12:56;102468.75;;;8.48;78.07
45523;BME280;31254;51.680;5.394;2023-03-04T14:15:29;102456.59;;;8.53;77.81
45523;BME280;31254;51.680;5.394;2023-03-04T14:17:58;102419.03;;;8.46;77.61
45523;BME280;31254;51.680;5.394;2023-03-04T14:20:35;102456.88;;;8.77;77.31
45523;BME280;31254;51.680;5.394;2023-03-04T14:23:21;102420.16;;;8.70;76.77
45523;BME280;31254;51.680;5.394;2023-03-04T14:25:48;102435.75;;;8.81;76.99
45523;BME280;31254;51.680;5.394;2023-03-04T14:28:18;102435.53;;;8.99;76.42
45523;BME280;31254;51.680;5.394;2023-03-04T14:30:53;102424.63;;;9.13;76.48
45523;BME280;31254;51.680;5.394;2023-03-04T14:33:24;102409.00;;;9.02;76.04
45523;BME280;31254;51.680;5.394;2023-03-04T14:35:53;102431.22;;;9.23;76.24
45523;BME280;31254;51.680;5.394;2023-03-04T14:38:34;102431.03;;;9.39;75.64
45523;BME280;31254;51.680;5.394;2023-03-04T14:41:14;102432.13;;;9.37;75.42
45523;BME280;31254;51.680;5.394;2023-03-04T14:46:50;102378.22;;;8.87;74.79
45523;BME280;31254;51.680;5.394;2023-03-04T14:49:34;102428.75;;;9.06;75.50
45523;BME280;31254;51.680;5.394;2023-03-04T14:52:02;102423.03;;;8.96;75.58
45523;BME280;31254;51.680;5.394;2023-03-04T14:57:13;102429.47;;;8.81;75.77
45523;BME280;31254;51.680;5.394;2023-03-04T14:59:49;102440.25;;;8.68;75.57
45523;BME280;31254;51.680;5.394;2023-03-04T15:02:26;102430.19;;;8.55;75.56
45523;BME280;31254;51.680;5.394;2023-03-04T15:05:19;102431.81;;;8.44;75.54
45523;BME280;31254;51.680;5.394;2023-03-04T15:07:55;102423.66;;;8.44;75.77
45523;BME280;31254;51.680;5.394;2023-03-04T15:10:26;102325.47;;;7.76;75.38
45523;BME280;31254;51.680;5.394;2023-03-04T15:12:56;102421.31;;;8.37;75.96